createdAt,value
2019-05-25T00:01:45.014Z,91.10
2019-05-25T00:04:13.425Z,91.30
2019-05-25T00:06:41.885Z,91.50
2019-05-25T00:09:10.281Z,91.70
2019-05-25T00:11:38.723Z,91.90
2019-05-25T00:14:07.139Z,92.00
2019-05-25T00:16:35.576Z,92.30
2019-05-25T00:19:04.057Z,92.40
2019-05-25T00:21:32.518Z,92.70
2019-05-25T00:24:11.621Z,92.90
2019-05-25T00:26:31.179Z,93.10
2019-05-25T00:28:59.623Z,93.10
2019-05-25T00:31:28.040Z,93.30
2019-05-25T00:33:56.476Z,93.40
2019-05-25T00:36:25.061Z,93.60
2019-05-25T00:38:53.506Z,93.90
2019-05-25T00:41:22.003Z,94.00
2019-05-25T00:43:50.439Z,94.10
2019-05-25T00:46:18.852Z,94.40
2019-05-25T00:48:47.296Z,94.50
2019-05-25T00:51:15.720Z,94.60
2019-05-25T00:53:44.144Z,94.80
2019-05-25T00:56:12.564Z,94.90
2019-05-25T00:58:40.988Z,95.00
2019-05-25T01:01:09.445Z,95.30
2019-05-25T01:03:37.941Z,95.50
2019-05-25T01:06:07.911Z,95.60
2019-05-25T01:08:36.343Z,96.00
2019-05-25T01:11:04.765Z,96.10
2019-05-25T01:13:33.205Z,96.30
2019-05-25T01:16:01.643Z,96.50
2019-05-25T01:18:30.401Z,96.70
2019-05-25T01:20:58.845Z,97.20
2019-05-25T01:23:27.387Z,97.00
2019-05-25T01:25:55.809Z,97.10
2019-05-25T01:28:24.246Z,97.30
2019-05-25T01:30:52.681Z,97.50
2019-05-25T01:33:21.113Z,97.70
2019-05-25T01:35:49.539Z,97.90
2019-05-25T01:38:17.973Z,98.00
2019-05-25T01:40:46.394Z,98.20
2019-05-25T01:43:14.826Z,98.20
2019-05-25T01:45:43.349Z,98.30
2019-05-25T01:48:11.762Z,98.70
2019-05-25T01:50:40.202Z,98.80
2019-05-25T01:53:11.535Z,99.00
2019-05-25T01:55:38.854Z,99.20
2019-05-25T01:58:07.270Z,99.30
2019-05-25T02:03:30.954Z,99.70
2019-05-25T02:05:59.399Z,99.80
2019-05-25T02:08:27.818Z,99.90
2019-05-25T02:10:56.250Z,99.90
2019-05-25T02:13:24.675Z,99.90
2019-05-25T02:15:53.157Z,99.90
2019-05-25T02:18:21.602Z,99.90
2019-05-25T02:20:50.030Z,99.90
2019-05-25T02:23:18.447Z,99.90
2019-05-25T02:25:46.886Z,99.90
2019-05-25T02:28:15.302Z,99.90
2019-05-25T02:30:43.732Z,99.90
2019-05-25T02:33:12.163Z,99.90
2019-05-25T02:35:40.608Z,99.90
2019-05-25T02:38:09.023Z,99.90
2019-05-25T02:40:37.471Z,99.90
2019-05-25T02:43:05.974Z,99.90
2019-05-25T02:45:34.527Z,99.90
2019-05-25T02:48:02.954Z,99.90
2019-05-25T02:50:31.455Z,99.90
2019-05-25T02:52:59.887Z,99.90
2019-05-25T02:55:34.556Z,99.90
2019-05-25T02:57:58.499Z,99.90
2019-05-25T03:00:34.485Z,99.90
2019-05-25T03:03:03.552Z,99.90
2019-05-25T03:05:32.104Z,99.90
2019-05-25T03:08:00.704Z,99.90
2019-05-25T03:10:29.479Z,99.90
2019-05-25T03:12:59.582Z,99.90
2019-05-25T03:15:28.015Z,99.90
2019-05-25T03:17:56.447Z,99.90
2019-05-25T03:20:24.861Z,99.90
2019-05-25T03:22:53.323Z,99.90
2019-05-25T03:25:21.755Z,99.90
2019-05-25T03:27:50.203Z,99.90
2019-05-25T03:30:33.244Z,99.90
2019-05-25T03:33:01.876Z,99.90
2019-05-25T03:35:31.000Z,99.90
2019-05-25T03:37:59.712Z,99.90
2019-05-25T03:40:28.124Z,99.90
2019-05-25T03:42:56.811Z,99.90
2019-05-25T03:45:25.233Z,99.90
2019-05-25T03:47:53.672Z,99.90
2019-05-25T03:50:22.171Z,99.90
2019-05-25T03:52:50.619Z,99.90
2019-05-25T03:55:19.059Z,99.90
2019-05-25T03:57:47.517Z,99.90
2019-05-25T04:00:17.737Z,99.90
2019-05-25T04:02:46.177Z,99.90
2019-05-25T04:05:14.666Z,99.90
2019-05-25T04:07:43.269Z,99.90
2019-05-25T04:10:13.312Z,99.90
2019-05-25T04:12:41.739Z,99.90
2019-05-25T04:15:10.255Z,99.90
2019-05-25T04:17:38.738Z,99.90
2019-05-25T04:20:07.802Z,99.90
2019-05-25T04:22:36.243Z,99.90
2019-05-25T04:25:06.603Z,99.90
2019-05-25T04:27:35.043Z,99.90
2019-05-25T04:30:05.219Z,99.90
2019-05-25T04:32:33.664Z,99.90
2019-05-25T04:35:02.132Z,99.90
2019-05-25T04:37:30.560Z,99.90
2019-05-25T04:39:58.976Z,99.90
2019-05-25T04:42:27.416Z,99.90
2019-05-25T04:44:55.920Z,99.90
2019-05-25T04:47:26.940Z,99.90
2019-05-25T04:49:54.512Z,99.90
2019-05-25T04:52:22.961Z,99.90
2019-05-25T04:54:51.383Z,99.90
2019-05-25T04:57:19.816Z,99.90
2019-05-25T04:59:48.248Z,99.90
2019-05-25T05:02:16.679Z,99.90
2019-05-25T05:04:45.109Z,99.90
2019-05-25T05:07:13.540Z,99.90
2019-05-25T05:09:41.957Z,99.90
2019-05-25T05:12:10.401Z,99.90
2019-05-25T05:14:38.832Z,99.90
2019-05-25T05:17:07.268Z,99.90
2019-05-25T05:19:35.692Z,99.90
2019-05-25T05:22:05.976Z,99.90
2019-05-25T05:24:34.277Z,99.90
2019-05-25T05:27:02.733Z,99.90
2019-05-25T05:29:31.154Z,99.90
2019-05-25T05:31:59.590Z,99.90
2019-05-25T05:34:28.154Z,99.90
2019-05-25T05:36:57.511Z,99.90
2019-05-25T05:39:27.858Z,99.90
2019-05-25T05:41:57.921Z,99.90
2019-05-25T05:44:28.304Z,99.90
2019-05-25T05:46:59.050Z,99.90
2019-05-25T05:49:29.242Z,99.90
2019-05-25T05:52:00.737Z,99.90
2019-05-25T05:54:30.517Z,99.90
2019-05-25T05:57:11.781Z,99.90
2019-05-25T05:59:29.104Z,99.90
2019-05-25T06:01:57.518Z,99.90
2019-05-25T06:04:25.973Z,99.90
2019-05-25T06:06:54.392Z,99.90
2019-05-25T06:09:22.895Z,99.90
2019-05-25T06:11:51.361Z,99.90
2019-05-25T06:14:19.854Z,99.90
2019-05-25T06:16:48.266Z,99.90
2019-05-25T06:19:16.695Z,99.90
2019-05-25T06:21:45.102Z,99.90
2019-05-25T06:24:13.542Z,99.90
2019-05-25T06:26:41.982Z,99.90
2019-05-25T06:29:10.418Z,99.90
2019-05-25T06:31:38.831Z,99.90
2019-05-25T06:34:07.279Z,99.90
2019-05-25T06:36:35.694Z,99.90
2019-05-25T06:39:06.772Z,99.90
2019-05-25T06:41:35.211Z,99.90
2019-05-25T06:44:04.158Z,99.90
2019-05-25T06:46:32.603Z,99.90
2019-05-25T06:49:01.015Z,99.90
2019-05-25T06:51:29.442Z,99.90
2019-05-25T06:53:57.867Z,99.90
2019-05-25T06:56:26.303Z,99.90
2019-05-25T06:58:54.706Z,99.90
2019-05-25T07:01:23.140Z,99.90
2019-05-25T07:03:51.828Z,99.90
2019-05-25T07:06:20.267Z,99.90
2019-05-25T07:08:48.684Z,99.90
2019-05-25T07:11:17.120Z,99.90
2019-05-25T07:13:45.560Z,99.90
2019-05-25T07:16:13.988Z,99.90
2019-05-25T07:18:42.429Z,99.90
2019-05-25T07:21:10.849Z,99.90
2019-05-25T07:23:39.269Z,99.90
2019-05-25T07:26:07.711Z,99.50
2019-05-25T07:28:36.136Z,99.00
2019-05-25T07:31:04.561Z,98.60
2019-05-25T07:33:32.974Z,98.30
2019-05-25T07:36:01.413Z,97.90
2019-05-25T07:38:29.853Z,98.00
2019-05-25T07:40:58.303Z,97.90
2019-05-25T07:43:26.750Z,98.00
2019-05-25T07:45:55.197Z,97.70
2019-05-25T07:48:23.642Z,97.40
2019-05-25T07:50:52.321Z,96.90
2019-05-25T07:53:20.754Z,96.20
2019-05-25T07:55:49.178Z,95.30
2019-05-25T07:58:18.606Z,94.50
2019-05-25T08:00:47.410Z,93.50
2019-05-25T08:03:15.851Z,92.30
2019-05-25T08:05:44.267Z,92.10
2019-05-25T08:08:12.702Z,92.20
2019-05-25T08:10:41.115Z,92.10
2019-05-25T08:13:09.579Z,92.40
2019-05-25T08:15:37.992Z,91.50
2019-05-25T08:18:06.420Z,91.70
2019-05-25T08:20:34.864Z,91.20
2019-05-25T08:23:03.291Z,91.10
2019-05-25T08:25:31.736Z,90.90
2019-05-25T08:28:00.153Z,88.70
2019-05-25T08:30:28.586Z,87.00
2019-05-25T08:32:57.016Z,87.90
2019-05-25T08:35:25.517Z,88.20
2019-05-25T08:37:53.973Z,87.70
2019-05-25T08:40:22.384Z,87.30
2019-05-25T08:42:50.821Z,86.70
2019-05-25T08:45:19.384Z,86.50
2019-05-25T08:47:47.837Z,87.10
2019-05-25T08:50:16.344Z,86.70
2019-05-25T08:52:44.795Z,88.10
2019-05-25T08:55:13.399Z,88.40
2019-05-25T08:57:41.815Z,87.00
2019-05-25T09:00:10.899Z,87.80
2019-05-25T09:02:39.316Z,87.30
2019-05-25T09:05:08.579Z,87.70
2019-05-25T09:07:37.034Z,87.30
2019-05-25T09:10:07.466Z,86.40
2019-05-25T09:12:35.909Z,85.20
2019-05-25T09:15:06.156Z,84.40
2019-05-25T09:17:34.834Z,83.70
2019-05-25T09:20:05.088Z,83.20
2019-05-25T09:22:33.528Z,82.10
2019-05-25T09:25:02.001Z,81.30
2019-05-25T09:27:30.465Z,79.90
2019-05-25T09:29:58.884Z,80.10
2019-05-25T09:32:27.335Z,80.20
2019-05-25T09:34:55.764Z,81.00
2019-05-25T09:37:24.200Z,81.50
2019-05-25T09:39:52.640Z,80.10
2019-05-25T09:42:21.077Z,80.70
2019-05-25T09:44:49.534Z,80.00
2019-05-25T09:47:18.041Z,81.50
2019-05-25T09:49:46.505Z,82.50
2019-05-25T09:52:14.973Z,83.60
2019-05-25T09:54:43.412Z,84.40
2019-05-25T09:57:11.932Z,85.50
2019-05-25T09:59:40.416Z,86.50
2019-05-25T10:02:09.020Z,86.50
2019-05-25T10:04:37.456Z,86.30
2019-05-25T10:07:05.940Z,85.10
2019-05-25T10:09:34.381Z,84.90
2019-05-25T10:12:03.429Z,85.30
2019-05-25T10:14:31.872Z,86.00
2019-05-25T10:17:00.304Z,85.00
2019-05-25T10:19:28.863Z,85.80
2019-05-25T10:21:59.506Z,85.60
2019-05-25T10:24:27.549Z,84.80
2019-05-25T10:26:55.972Z,84.20
2019-05-25T10:29:36.568Z,83.70
2019-05-25T10:31:54.561Z,84.10
2019-05-25T10:34:23.013Z,82.20
2019-05-25T10:36:51.444Z,82.00
2019-05-25T10:39:19.864Z,81.00
2019-05-25T10:41:48.325Z,81.50
2019-05-25T10:44:16.736Z,81.70
2019-05-25T10:46:45.179Z,82.40
2019-05-25T10:49:13.603Z,82.50
2019-05-25T10:51:42.038Z,82.60
2019-05-25T10:54:10.464Z,82.30
2019-05-25T10:56:38.975Z,83.20
2019-05-25T10:59:07.399Z,83.50
2019-05-25T11:01:35.837Z,82.20
2019-05-25T11:04:04.331Z,83.10
2019-05-25T11:06:34.814Z,82.40
2019-05-25T11:09:02.985Z,82.70
2019-05-25T11:11:31.430Z,81.70
2019-05-25T11:13:59.867Z,81.20
2019-05-25T11:16:28.286Z,81.00
2019-05-25T11:18:56.715Z,81.00
2019-05-25T11:21:25.154Z,81.30
2019-05-25T11:23:53.582Z,81.10
2019-05-25T11:26:22.029Z,80.70
2019-05-25T11:28:50.469Z,80.10
2019-05-25T11:31:18.914Z,79.90
2019-05-25T11:33:47.325Z,79.00
2019-05-25T11:36:15.758Z,78.20
2019-05-25T11:38:44.222Z,77.70
2019-05-25T11:41:12.715Z,77.10
2019-05-25T11:43:41.160Z,76.50
2019-05-25T11:46:09.583Z,75.70
2019-05-25T11:48:38.031Z,75.50
2019-05-25T11:51:06.463Z,75.60
2019-05-25T11:53:34.894Z,74.90
2019-05-25T11:56:03.327Z,75.40
2019-05-25T11:58:39.096Z,75.70
2019-05-25T12:01:01.943Z,74.00
2019-05-25T12:03:30.375Z,74.30
2019-05-25T12:05:58.792Z,74.00
2019-05-25T12:08:27.234Z,72.80
2019-05-25T12:10:55.642Z,72.90
2019-05-25T12:13:24.075Z,73.30
2019-05-25T12:15:52.566Z,73.10
2019-05-25T12:18:21.008Z,72.80
2019-05-25T12:20:49.433Z,72.40
2019-05-25T12:23:17.874Z,72.50
2019-05-25T12:25:46.326Z,72.60
2019-05-25T12:28:14.743Z,71.20
2019-05-25T12:30:43.170Z,71.30
2019-05-25T12:33:11.634Z,71.70
2019-05-25T12:35:40.390Z,71.00
2019-05-25T12:38:08.881Z,71.20
2019-05-25T12:40:52.452Z,71.10
2019-05-25T12:43:07.458Z,70.30
2019-05-25T12:45:35.886Z,69.90
2019-05-25T12:48:05.437Z,67.80
2019-05-25T12:50:33.870Z,66.50
2019-05-25T12:53:02.295Z,66.90
2019-05-25T12:55:30.723Z,65.00
2019-05-25T12:57:59.158Z,66.10
2019-05-25T13:00:27.571Z,66.20
2019-05-25T13:02:56.002Z,66.00
2019-05-25T13:05:33.724Z,65.80
2019-05-25T13:07:54.575Z,63.40
2019-05-25T13:10:23.010Z,62.40
2019-05-25T13:12:51.428Z,61.00
2019-05-25T13:15:19.925Z,61.30
2019-05-25T13:17:48.353Z,62.60
2019-05-25T13:20:17.031Z,59.90
2019-05-25T13:22:45.446Z,59.80
2019-05-25T13:25:13.959Z,58.70
2019-05-25T13:27:42.435Z,58.90
2019-05-25T13:30:11.533Z,58.20
2019-05-25T13:32:39.995Z,58.40
2019-05-25T13:35:08.601Z,57.80
2019-05-25T13:37:37.927Z,57.00
2019-05-25T13:40:07.101Z,56.90
2019-05-25T13:42:35.568Z,56.00
2019-05-25T13:45:06.099Z,55.00
2019-05-25T13:47:34.523Z,55.20
2019-05-25T13:50:04.443Z,55.30
2019-05-25T13:52:32.863Z,53.90
2019-05-25T13:55:01.290Z,50.60
2019-05-25T13:57:29.715Z,46.00
2019-05-25T13:59:58.383Z,43.60
2019-05-25T14:02:26.819Z,37.00
2019-05-25T14:04:55.324Z,35.70
2019-05-25T14:07:23.754Z,36.30
2019-05-25T14:09:52.186Z,33.60
2019-05-25T14:12:20.598Z,29.70
2019-05-25T14:14:49.028Z,26.30
2019-05-25T14:17:17.447Z,24.10
2019-05-25T14:19:45.875Z,25.00
2019-05-25T14:22:14.300Z,25.90
2019-05-25T14:24:42.743Z,26.60
2019-05-25T14:27:11.163Z,28.40
2019-05-25T14:29:39.587Z,30.20
2019-05-25T14:32:08.027Z,32.70
2019-05-25T14:34:36.449Z,34.10
2019-05-25T14:37:04.876Z,35.40
2019-05-25T14:39:33.314Z,36.50
2019-05-25T14:42:01.824Z,37.50
2019-05-25T14:44:30.235Z,38.60
2019-05-25T14:46:58.659Z,39.60
2019-05-25T14:49:27.151Z,40.50
2019-05-25T14:51:55.587Z,41.40
2019-05-25T14:54:23.996Z,42.30
2019-05-25T14:56:52.437Z,42.90
2019-05-25T14:59:20.852Z,43.20
2019-05-25T15:02:01.957Z,43.90
2019-05-25T15:04:19.448Z,44.10
2019-05-25T15:06:47.874Z,44.80
2019-05-25T15:09:16.380Z,45.60
2019-05-25T15:11:44.819Z,46.00
2019-05-25T15:14:13.232Z,47.10
2019-05-25T15:16:41.695Z,47.20
2019-05-25T15:19:10.216Z,47.30
2019-05-25T15:21:38.805Z,47.50
2019-05-25T15:24:07.476Z,48.10
2019-05-25T15:26:35.994Z,48.10
2019-05-25T15:29:04.432Z,48.40
2019-05-25T15:31:32.907Z,48.20
2019-05-25T15:34:02.008Z,48.30
2019-05-25T15:36:30.445Z,48.00
2019-05-25T15:38:58.883Z,48.00
2019-05-25T15:41:27.395Z,48.10
2019-05-25T15:43:55.829Z,48.20
2019-05-25T15:46:24.253Z,47.80
2019-05-25T15:48:52.692Z,47.40
2019-05-25T15:51:21.111Z,47.60
2019-05-25T15:53:49.524Z,47.30
2019-05-25T15:56:17.964Z,47.50
2019-05-25T15:58:46.378Z,48.30
2019-05-25T16:01:14.809Z,48.70
2019-05-25T16:04:02.567Z,48.70
2019-05-25T16:06:31.013Z,48.20
2019-05-25T16:09:00.029Z,48.60
2019-05-25T16:11:31.835Z,48.80
2019-05-25T16:13:58.691Z,49.20
2019-05-25T16:16:30.125Z,49.30
2019-05-25T16:18:57.348Z,49.40
2019-05-25T16:21:25.781Z,49.50
2019-05-25T16:23:54.234Z,49.70
2019-05-25T16:26:22.748Z,49.60
2019-05-25T16:28:51.504Z,50.10
2019-05-25T16:31:20.017Z,50.30
2019-05-25T16:33:48.624Z,50.60
2019-05-25T16:36:17.380Z,50.80
2019-05-25T16:38:45.816Z,50.90
2019-05-25T16:41:14.368Z,51.20
2019-05-25T16:43:42.800Z,51.10
2019-05-25T16:46:11.293Z,51.20
2019-05-25T16:48:39.825Z,51.30
2019-05-25T16:51:08.257Z,51.40
2019-05-25T16:53:36.682Z,51.30
2019-05-25T16:56:05.181Z,51.00
2019-05-25T16:58:33.604Z,51.60
2019-05-25T17:01:02.057Z,50.60
2019-05-25T17:03:30.465Z,50.30
2019-05-25T17:05:58.981Z,50.00
2019-05-25T17:08:27.513Z,50.40
2019-05-25T17:10:56.028Z,50.60
2019-05-25T17:13:24.540Z,50.30
2019-05-25T17:15:55.868Z,50.00
2019-05-25T17:18:24.320Z,49.70
2019-05-25T17:20:52.816Z,49.10
2019-05-25T17:23:21.378Z,48.70
2019-05-25T17:25:49.861Z,48.90
2019-05-25T17:28:18.368Z,48.30
2019-05-25T17:30:46.937Z,47.90
2019-05-25T17:33:15.800Z,48.30
2019-05-25T17:35:44.752Z,48.60
2019-05-25T17:38:13.355Z,49.10
2019-05-25T17:40:41.902Z,49.10
2019-05-25T17:43:10.391Z,49.20
2019-05-25T17:45:38.830Z,49.80
2019-05-25T17:48:07.342Z,50.40
2019-05-25T17:50:35.827Z,50.90
2019-05-25T17:53:04.495Z,51.30
2019-05-25T17:55:32.905Z,51.40
2019-05-25T17:58:01.346Z,51.80
2019-05-25T18:00:45.522Z,51.90
2019-05-25T18:03:14.014Z,51.90
2019-05-25T18:05:42.509Z,52.30
2019-05-25T18:08:11.083Z,52.70
2019-05-25T18:10:51.813Z,52.70
2019-05-25T18:13:09.662Z,53.00
2019-05-25T18:15:38.099Z,53.30
2019-05-25T18:18:07.375Z,53.60
2019-05-25T18:20:35.934Z,53.80
2019-05-25T18:23:04.519Z,54.10
2019-05-25T18:25:32.961Z,54.30
2019-05-25T18:28:01.404Z,54.70
2019-05-25T18:30:30.586Z,55.10
2019-05-25T18:32:59.027Z,55.20
2019-05-25T18:35:27.518Z,55.50
2019-05-25T18:37:55.942Z,56.00
2019-05-25T18:40:24.522Z,56.20
2019-05-25T18:42:53.215Z,56.30
2019-05-25T18:45:21.687Z,56.80
2019-05-25T18:47:50.111Z,57.10
2019-05-25T18:50:18.675Z,57.50
2019-05-25T18:52:47.091Z,57.60
2019-05-25T18:55:16.063Z,57.80
2019-05-25T18:57:44.483Z,58.10
2019-05-25T19:00:13.356Z,58.70
2019-05-25T19:02:41.996Z,58.80
2019-05-25T19:05:10.819Z,59.10
2019-05-25T19:07:39.409Z,59.30
2019-05-25T19:10:08.914Z,59.60
2019-05-25T19:12:37.468Z,59.80
2019-05-25T19:15:09.852Z,60.20
2019-05-25T19:17:38.411Z,61.10
2019-05-25T19:20:08.627Z,61.70
2019-05-25T19:22:37.317Z,62.50
2019-05-25T19:25:10.574Z,63.40
2019-05-25T19:27:39.089Z,63.90
2019-05-25T19:30:08.919Z,64.60
2019-05-25T19:32:37.400Z,65.20
2019-05-25T19:35:08.147Z,65.70
2019-05-25T19:37:36.663Z,66.10
2019-05-25T19:40:09.046Z,66.70
2019-05-25T19:42:37.776Z,67.10
2019-05-25T19:45:08.595Z,67.30
2019-05-25T19:47:37.101Z,67.70
2019-05-25T19:50:07.446Z,68.00
2019-05-25T19:52:36.079Z,68.40
2019-05-25T19:55:06.403Z,68.60
2019-05-25T19:57:34.903Z,68.70
2019-05-25T20:00:05.246Z,69.00
2019-05-25T20:02:33.660Z,69.40
2019-05-25T20:05:15.112Z,69.90
2019-05-25T20:07:32.545Z,70.20
2019-05-25T20:10:00.982Z,70.40
2019-05-25T20:12:29.394Z,70.70
2019-05-25T20:14:57.802Z,71.00
2019-05-25T20:17:26.238Z,71.00
2019-05-25T20:19:54.674Z,71.10
2019-05-25T20:22:23.155Z,71.50
2019-05-25T20:24:51.575Z,72.00
2019-05-25T20:27:20.023Z,72.50
2019-05-25T20:29:48.455Z,72.80
2019-05-25T20:32:16.884Z,72.90
2019-05-25T20:34:45.969Z,73.10
2019-05-25T20:37:14.515Z,73.40
2019-05-25T20:39:42.951Z,74.30
2019-05-25T20:42:14.817Z,74.20
2019-05-25T20:44:41.520Z,75.00
2019-05-25T20:47:10.031Z,75.60
2019-05-25T20:49:38.497Z,75.90
2019-05-25T20:52:06.945Z,76.30
2019-05-25T20:54:35.366Z,76.80
2019-05-25T20:57:03.808Z,77.50
2019-05-25T20:59:32.216Z,78.10
2019-05-25T21:02:00.669Z,78.70
2019-05-25T21:04:29.107Z,79.00
2019-05-25T21:06:57.548Z,79.40
2019-05-25T21:09:25.980Z,79.80
2019-05-25T21:11:56.097Z,80.00
2019-05-25T21:14:24.558Z,80.60
2019-05-25T21:16:52.999Z,80.80
2019-05-25T21:19:21.463Z,80.80
2019-05-25T21:21:49.970Z,81.00
2019-05-25T21:24:18.378Z,81.10
2019-05-25T21:26:46.818Z,81.60
2019-05-25T21:29:15.240Z,81.80
2019-05-25T21:31:43.686Z,82.10
2019-05-25T21:34:12.103Z,82.50
2019-05-25T21:36:43.076Z,83.10
2019-05-25T21:39:10.690Z,83.50
2019-05-25T21:41:39.137Z,83.90
2019-05-25T21:44:07.563Z,84.00
2019-05-25T21:46:36.037Z,84.40
2019-05-25T21:49:04.631Z,84.80
2019-05-25T21:51:33.103Z,85.00
2019-05-25T21:54:01.604Z,85.20
2019-05-25T21:56:30.032Z,85.40
2019-05-25T21:58:58.475Z,85.90
2019-05-25T22:01:26.928Z,86.40
2019-05-25T22:03:55.366Z,86.70
2019-05-25T22:06:24.857Z,86.90
2019-05-25T22:08:53.843Z,87.10
2019-05-25T22:11:22.277Z,87.40
2019-05-25T22:13:50.689Z,87.80
2019-05-25T22:16:19.136Z,87.80
2019-05-25T22:18:47.547Z,87.90
2019-05-25T22:21:15.990Z,88.10
2019-05-25T22:23:44.426Z,88.40
2019-05-25T22:26:12.845Z,88.50
2019-05-25T22:28:44.970Z,88.70
2019-05-25T22:31:11.434Z,88.80
2019-05-25T22:33:39.881Z,89.00
2019-05-25T22:36:08.297Z,89.10
2019-05-25T22:38:36.730Z,89.20
2019-05-25T22:41:05.155Z,89.30
2019-05-25T22:43:33.591Z,89.50
2019-05-25T22:46:02.267Z,89.50
2019-05-25T22:48:30.709Z,89.80
2019-05-25T22:50:59.102Z,90.10
2019-05-25T22:53:27.534Z,90.20
2019-05-25T22:55:55.942Z,90.30
2019-05-25T22:58:24.379Z,90.40
2019-05-25T23:00:52.799Z,90.40
2019-05-25T23:03:21.255Z,90.70
2019-05-25T23:05:49.678Z,90.60
2019-05-25T23:08:18.100Z,90.70
2019-05-25T23:10:46.787Z,91.00
2019-05-25T23:13:15.211Z,91.30
2019-05-25T23:15:43.643Z,91.40
2019-05-25T23:18:12.299Z,91.70
2019-05-25T23:20:40.739Z,91.90
2019-05-25T23:23:09.160Z,92.20
2019-05-25T23:25:37.595Z,92.50
2019-05-25T23:28:06.019Z,92.90
2019-05-25T23:30:34.477Z,93.20
2019-05-25T23:33:02.896Z,94.00
2019-05-25T23:35:31.343Z,93.90
2019-05-25T23:38:03.329Z,94.10
2019-05-25T23:40:29.912Z,94.50
2019-05-25T23:42:58.336Z,94.60
2019-05-25T23:45:26.776Z,94.80
2019-05-25T23:47:55.272Z,95.10
2019-05-25T23:50:23.704Z,95.30
2019-05-25T23:52:52.185Z,95.50
2019-05-25T23:55:20.665Z,95.80
2019-05-25T23:57:49.109Z,96.10
